Time;durP1;ratioP1;P1;durP2;ratioP2;P2;SDS_P1;SDS_P2;PMS_P1;PMS_P2;Temp;Humidity;BMP_temperature;BMP_pressure;BME280_temperature;BME280_humidity;BME280_pressure;Samples;Min_cycle;Max_cycle;Signal;HPM_P1;HPM_P2
2023/01/11 00:00:43;;;;;;;444.33;66.15;;;;;;;;;;4960017;28;20046;-46
2023/01/11 00:03:09;;;;;;;319.60;55.38;;;;;;;;;;4961710;28;20077;-44
2023/01/11 00:05:37;;;;;;;285.23;54.08;;;;;;;;;;4959028;28;20051;-43
2023/01/11 00:08:03;;;;;;;182.02;42.22;;;;;;;;;;4960036;28;20485;-43
2023/01/11 00:10:31;;;;;;;222.55;46.78;;;;;;;;;;4956707;28;20082;-46
2023/01/11 00:12:58;;;;;;;541.25;66.60;;;;;;;;;;4956665;28;20048;-47
2023/01/11 00:15:25;;;;;;;333.83;47.03;;;;;;;;;;4957822;28;20043;-45
2023/01/11 00:17:51;;;;;;;519.17;63.92;;;;;;;;;;4957593;28;20039;-47
2023/01/11 00:20:18;;;;;;;571.50;67.20;;;;;;;;;;4959039;28;20050;-45
2023/01/11 00:22:44;;;;;;;618.28;72.85;;;;;;;;;;4958556;28;20043;-43
2023/01/11 00:25:11;;;;;;;285.08;46.45;;;;;;;;;;4961827;28;20051;-44
2023/01/11 00:27:37;;;;;;;415.42;56.35;;;;;;;;;;4954497;28;20054;-45
2023/01/11 00:30:04;;;;;;;247.45;42.72;;;;;;;;;;4958728;28;20562;-43
2023/01/11 00:32:30;;;;;;;193.00;38.45;;;;;;;;;;4958754;28;20062;-45
2023/01/11 00:34:57;;;;;;;213.88;40.28;;;;;;;;;;4958380;28;20034;-45
2023/01/11 00:37:23;;;;;;;410.35;54.22;;;;;;;;;;4956339;28;20101;-47
2023/01/11 00:39:51;;;;;;;377.50;54.70;;;;;;;;;;4958359;28;20051;-50
2023/01/11 00:47:57;;;;;;;395.08;53.08;;;;;;;;;;4959262;28;20043;-44
2023/01/11 00:50:24;;;;;;;338.27;42.78;;;;;;;;;;4958741;28;20057;-46
2023/01/11 00:52:50;;;;;;;189.50;38.40;;;;;;;;;;4956352;28;20501;-43
2023/01/11 00:55:17;;;;;;;174.95;34.40;;;;;;;;;;4969666;28;20065;-46
2023/01/11 00:57:43;;;;;;;282.75;41.75;;;;;;;;;;4954390;28;20043;-43
2023/01/11 01:00:10;;;;;;;334.80;49.50;;;;;;;;;;4956623;28;20035;-44
2023/01/11 01:02:37;;;;;;;210.32;37.22;;;;;;;;;;4961850;28;20532;-44
2023/01/11 01:05:03;;;;;;;293.40;42.40;;;;;;;;;;4957037;28;20065;-46
2023/01/11 01:07:30;;;;;;;186.02;29.92;;;;;;;;;;4956174;28;20050;-45
2023/01/11 01:09:56;;;;;;;231.20;31.88;;;;;;;;;;4958008;28;20046;-46
2023/01/11 01:15:08;;;;;;;420.40;45.75;;;;;;;;;;4957537;28;20043;-48
2023/01/11 01:17:34;;;;;;;431.20;44.15;;;;;;;;;;4958212;28;20735;-44
2023/01/11 01:20:00;;;;;;;290.02;36.95;;;;;;;;;;4957997;28;20077;-46
2023/01/11 01:22:27;;;;;;;505.85;54.13;;;;;;;;;;4956981;28;20460;-42
2023/01/11 01:24:53;;;;;;;367.10;45.72;;;;;;;;;;4955485;28;20490;-47
2023/01/11 01:27:20;;;;;;;364.58;42.47;;;;;;;;;;4956655;28;20043;-46
2023/01/11 01:29:46;;;;;;;331.83;43.72;;;;;;;;;;4958641;28;20058;-47
2023/01/11 01:32:13;;;;;;;593.45;55.33;;;;;;;;;;4957567;28;20039;-44
2023/01/11 01:34:39;;;;;;;604.40;52.38;;;;;;;;;;4955763;28;20047;-46
2023/01/11 01:37:06;;;;;;;365.85;40.17;;;;;;;;;;4955444;28;20050;-46
2023/01/11 01:39:33;;;;;;;211.15;29.80;;;;;;;;;;4954782;28;20062;-43
2023/01/11 01:42:00;;;;;;;587.70;51.72;;;;;;;;;;4956643;28;20402;-46
2023/01/11 01:44:45;;;;;;;694.08;63.22;;;;;;;;;;4956491;28;20478;-45
2023/01/11 01:47:12;;;;;;;449.75;46.15;;;;;;;;;;4957613;28;20043;-44
2023/01/11 01:49:39;;;;;;;250.93;33.40;;;;;;;;;;4960444;28;20043;-43
2023/01/11 01:52:06;;;;;;;452.48;44.80;;;;;;;;;;4955013;28;20043;-42
2023/01/11 01:54:35;;;;;;;323.58;36.50;;;;;;;;;;4953761;28;20035;-43
2023/01/11 01:57:04;;;;;;;232.95;32.85;;;;;;;;;;4958151;28;20036;-43
2023/01/11 01:59:31;;;;;;;425.88;44.38;;;;;;;;;;4957614;28;20051;-46
2023/01/11 02:01:59;;;;;;;381.92;38.83;;;;;;;;;;4954971;28;20041;-44
2023/01/11 02:04:27;;;;;;;435.35;42.72;;;;;;;;;;4953428;28;20063;-44
2023/01/11 02:06:57;;;;;;;419.05;40.75;;;;;;;;;;4956516;28;20065;-44
2023/01/11 02:09:26;;;;;;;441.83;46.05;;;;;;;;;;4954658;28;20047;-45
2023/01/11 02:11:54;;;;;;;194.30;29.63;;;;;;;;;;4956767;28;20114;-45
2023/01/11 02:14:21;;;;;;;440.83;45.65;;;;;;;;;;4955969;28;20094;-46
2023/01/11 02:16:48;;;;;;;502.65;48.58;;;;;;;;;;4955828;28;20051;-50
2023/01/11 02:19:23;;;;;;;409.17;40.88;;;;;;;;;;4954959;28;20050;-43
2023/01/11 02:21:52;;;;;;;519.22;47.30;;;;;;;;;;4953761;28;20130;-46
2023/01/11 02:24:25;;;;;;;408.20;39.75;;;;;;;;;;4958653;28;20055;-44
2023/01/11 02:27:00;;;;;;;235.17;30.60;;;;;;;;;;4956703;28;20462;-45
2023/01/11 02:29:45;;;;;;;357.85;36.63;;;;;;;;;;4957592;28;20077;-47
2023/01/11 02:32:20;;;;;;;164.88;26.30;;;;;;;;;;4959809;28;20470;-46
2023/01/11 02:34:55;;;;;;;440.85;41.75;;;;;;;;;;4959982;28;20050;-43
2023/01/11 02:37:37;;;;;;;253.65;34.10;;;;;;;;;;4958532;28;20042;-43
2023/01/11 02:40:07;;;;;;;262.33;32.15;;;;;;;;;;4954566;28;20058;-47
2023/01/11 02:45:45;;;;;;;495.15;43.33;;;;;;;;;;4956068;28;20130;-45
2023/01/11 02:48:27;;;;;;;313.02;35.60;;;;;;;;;;4957822;28;20121;-46
2023/01/11 02:50:57;;;;;;;385.40;37.90;;;;;;;;;;4956749;28;20524;-45
2023/01/11 02:53:31;;;;;;;404.27;35.38;;;;;;;;;;4952826;28;20055;-49
2023/01/11 02:55:58;;;;;;;394.67;34.45;;;;;;;;;;4960343;28;20047;-44
2023/01/11 02:58:27;;;;;;;243.10;27.98;;;;;;;;;;4958747;28;20080;-43
2023/01/11 03:00:54;;;;;;;180.65;25.70;;;;;;;;;;4954221;28;20043;-46
2023/01/11 03:03:23;;;;;;;282.80;33.78;;;;;;;;;;4954185;28;20051;-43
2023/01/11 03:05:56;;;;;;;210.55;25.35;;;;;;;;;;4956695;28;20055;-47
2023/01/11 03:08:23;;;;;;;241.02;30.52;;;;;;;;;;4956712;28;20054;-48
2023/01/11 03:11:01;;;;;;;260.70;30.20;;;;;;;;;;4956636;28;20593;-42
2023/01/11 03:13:46;;;;;;;241.82;26.58;;;;;;;;;;4955898;28;20038;-42
2023/01/11 03:16:13;;;;;;;298.00;33.97;;;;;;;;;;4957908;28;20042;-45
2023/01/11 03:18:39;;;;;;;396.08;37.45;;;;;;;;;;4952849;28;20051;-44
2023/01/11 03:21:15;;;;;;;331.02;33.92;;;;;;;;;;4956181;28;20634;-45
2023/01/11 03:23:48;;;;;;;240.48;28.63;;;;;;;;;;4957371;28;20577;-45
2023/01/11 03:26:14;;;;;;;238.32;28.85;;;;;;;;;;4956691;28;20485;-45
2023/01/11 03:28:52;;;;;;;182.57;24.42;;;;;;;;;;4955094;28;20039;-45
2023/01/11 03:31:33;;;;;;;219.63;25.48;;;;;;;;;;4953833;28;20146;-45
2023/01/11 03:34:18;;;;;;;260.83;27.27;;;;;;;;;;4953080;28;20057;-43
2023/01/11 03:36:48;;;;;;;292.63;26.02;;;;;;;;;;4954253;28;20047;-43
2023/01/11 03:39:15;;;;;;;160.07;21.40;;;;;;;;;;4954749;28;20039;-43
2023/01/11 03:41:42;;;;;;;159.55;21.27;;;;;;;;;;4958999;28;20047;-44
2023/01/11 03:44:11;;;;;;;192.38;25.30;;;;;;;;;;4957924;28;20513;-47
2023/01/11 03:46:40;;;;;;;145.48;20.42;;;;;;;;;;4961237;28;20113;-48
2023/01/11 03:49:09;;;;;;;211.98;23.15;;;;;;;;;;4961020;28;20102;-44
2023/01/11 03:51:43;;;;;;;183.65;21.85;;;;;;;;;;4956273;28;20410;-43
2023/01/11 03:54:12;;;;;;;136.30;18.65;;;;;;;;;;4958084;28;20047;-44
2023/01/11 03:56:44;;;;;;;160.38;20.50;;;;;;;;;;4959911;28;20557;-42
2023/01/11 03:59:11;;;;;;;140.80;17.50;;;;;;;;;;4963526;28;20968;-45
2023/01/11 04:01:38;;;;;;;155.82;21.25;;;;;;;;;;4957761;28;20078;-46
2023/01/11 04:04:04;;;;;;;205.02;20.92;;;;;;;;;;4958556;28;20826;-42
2023/01/11 04:06:32;;;;;;;154.10;18.17;;;;;;;;;;4956144;28;20055;-42
2023/01/11 04:08:59;;;;;;;188.80;22.48;;;;;;;;;;4959367;28;20467;-46
2023/01/11 04:11:25;;;;;;;257.70;27.17;;;;;;;;;;4958813;28;20146;-42
2023/01/11 04:13:52;;;;;;;171.40;21.27;;;;;;;;;;4957996;28;20039;-43
2023/01/11 04:16:18;;;;;;;221.45;26.42;;;;;;;;;;4957234;28;20063;-44
2023/01/11 04:18:45;;;;;;;228.02;25.70;;;;;;;;;;4955089;28;20092;-45
2023/01/11 04:21:11;;;;;;;223.73;24.55;;;;;;;;;;4958076;28;20073;-46
2023/01/11 04:23:38;;;;;;;308.65;28.92;;;;;;;;;;4959024;28;20042;-45
2023/01/11 04:26:04;;;;;;;140.02;20.88;;;;;;;;;;4959516;28;20034;-42
2023/01/11 04:28:32;;;;;;;234.68;26.25;;;;;;;;;;4956103;28;20417;-46
2023/01/11 04:30:58;;;;;;;179.27;23.45;;;;;;;;;;4956542;28;20079;-43
2023/01/11 04:33:25;;;;;;;131.88;20.40;;;;;;;;;;4956452;28;20047;-42
2023/01/11 04:35:51;;;;;;;90.85;16.85;;;;;;;;;;4958848;28;20825;-44
2023/01/11 04:38:18;;;;;;;219.57;25.15;;;;;;;;;;4961470;28;20059;-46
2023/01/11 04:40:46;;;;;;;249.63;28.42;;;;;;;;;;4957480;28;20057;-43
2023/01/11 04:43:12;;;;;;;148.23;20.67;;;;;;;;;;4958163;28;20056;-45
2023/01/11 04:45:39;;;;;;;206.65;26.13;;;;;;;;;;4955311;28;20066;-43
2023/01/11 04:48:05;;;;;;;288.17;29.50;;;;;;;;;;4957884;28;20047;-46
2023/01/11 04:50:32;;;;;;;162.80;24.75;;;;;;;;;;4960404;28;20073;-43
2023/01/11 04:52:58;;;;;;;292.02;30.73;;;;;;;;;;4962129;28;20485;-42
2023/01/11 04:55:25;;;;;;;332.20;30.08;;;;;;;;;;4964240;28;20043;-46
2023/01/11 04:57:51;;;;;;;179.95;23.70;;;;;;;;;;4954846;28;20556;-43
2023/01/11 05:00:18;;;;;;;220.68;25.42;;;;;;;;;;4957130;28;20043;-44
2023/01/11 05:02:44;;;;;;;408.48;38.00;;;;;;;;;;4957694;28;20043;-43
2023/01/11 05:05:11;;;;;;;289.00;28.58;;;;;;;;;;4955730;28;20066;-42
2023/01/11 05:07:38;;;;;;;142.35;21.80;;;;;;;;;;4952371;28;20568;-45
2023/01/11 05:10:04;;;;;;;215.88;26.23;;;;;;;;;;4955882;28;20047;-43
2023/01/11 05:12:31;;;;;;;133.38;21.60;;;;;;;;;;4956897;28;20040;-46
2023/01/11 05:14:58;;;;;;;291.77;31.50;;;;;;;;;;4958342;28;20039;-42
2023/01/11 05:17:24;;;;;;;206.20;26.48;;;;;;;;;;4954217;28;20046;-43
2023/01/11 05:19:51;;;;;;;174.25;24.33;;;;;;;;;;4957189;28;20054;-42
2023/01/11 05:22:17;;;;;;;168.05;23.42;;;;;;;;;;4958451;28;20043;-45
2023/01/11 05:24:43;;;;;;;245.27;26.15;;;;;;;;;;4954760;28;20047;-44
2023/01/11 05:27:10;;;;;;;135.45;22.67;;;;;;;;;;4957395;28;20044;-44
2023/01/11 05:29:36;;;;;;;210.98;26.85;;;;;;;;;;4956916;28;20050;-44
2023/01/11 05:32:03;;;;;;;238.40;28.58;;;;;;;;;;4957693;28;20046;-43
2023/01/11 05:34:29;;;;;;;163.00;24.45;;;;;;;;;;4954926;28;20063;-42
2023/01/11 05:36:56;;;;;;;224.25;27.52;;;;;;;;;;4963482;28;20501;-46
2023/01/11 05:39:22;;;;;;;270.27;31.20;;;;;;;;;;4954138;28;20098;-43
2023/01/11 05:41:49;;;;;;;218.40;29.38;;;;;;;;;;4957215;28;20394;-44
2023/01/11 05:47:01;;;;;;;208.73;28.98;;;;;;;;;;4964848;28;20047;-44
2023/01/11 05:49:27;;;;;;;260.98;29.58;;;;;;;;;;4956557;28;20035;-44
2023/01/11 05:51:54;;;;;;;199.90;27.58;;;;;;;;;;4956098;28;20046;-43
2023/01/11 05:54:20;;;;;;;312.38;36.22;;;;;;;;;;4955003;28;20051;-43
2023/01/11 05:56:47;;;;;;;263.92;31.08;;;;;;;;;;4954745;28;20043;-44
2023/01/11 05:59:13;;;;;;;204.68;30.02;;;;;;;;;;4958285;28;20041;-43
2023/01/11 06:01:40;;;;;;;164.43;28.10;;;;;;;;;;4954671;28;20558;-43
2023/01/11 06:04:07;;;;;;;275.38;32.90;;;;;;;;;;4958489;28;20043;-42
2023/01/11 06:06:34;;;;;;;171.73;27.23;;;;;;;;;;4955903;28;20051;-45
2023/01/11 06:09:00;;;;;;;263.02;33.17;;;;;;;;;;4955778;28;20039;-44
2023/01/11 06:11:27;;;;;;;391.92;38.38;;;;;;;;;;4958915;28;20118;-43
2023/01/11 06:13:53;;;;;;;242.55;32.47;;;;;;;;;;4956894;28;20035;-44
2023/01/11 06:16:20;;;;;;;391.58;40.70;;;;;;;;;;4954698;28;20082;-43
2023/01/11 06:18:48;;;;;;;392.42;38.70;;;;;;;;;;4952622;28;20047;-42
2023/01/11 06:21:16;;;;;;;262.38;31.02;;;;;;;;;;4956498;28;20086;-43
2023/01/11 06:23:44;;;;;;;191.18;29.42;;;;;;;;;;4957195;28;20122;-43
2023/01/11 06:26:12;;;;;;;239.98;31.95;;;;;;;;;;4956081;28;20129;-43
2023/01/11 06:28:39;;;;;;;274.33;33.00;;;;;;;;;;4954714;28;20039;-44
2023/01/11 06:31:06;;;;;;;345.15;36.25;;;;;;;;;;4958133;28;20071;-42
2023/01/11 06:33:32;;;;;;;364.85;35.90;;;;;;;;;;4953347;28;20057;-43
2023/01/11 06:36:02;;;;;;;361.75;34.60;;;;;;;;;;4956766;28;20059;-43
2023/01/11 06:38:28;;;;;;;282.23;31.23;;;;;;;;;;4955132;28;20074;-46
2023/01/11 06:40:56;;;;;;;317.23;32.65;;;;;;;;;;4956799;28;20051;-42
2023/01/11 06:43:23;;;;;;;264.38;30.25;;;;;;;;;;4959099;28;20047;-42
2023/01/11 06:45:50;;;;;;;315.70;32.38;;;;;;;;;;4954275;28;20066;-43
2023/01/11 06:48:17;;;;;;;275.02;33.25;;;;;;;;;;4951523;28;20036;-43
2023/01/11 06:50:51;;;;;;;224.70;27.45;;;;;;;;;;4956271;28;20387;-42
2023/01/11 06:53:17;;;;;;;164.45;23.65;;;;;;;;;;4961686;28;20050;-43
2023/01/11 06:55:47;;;;;;;161.80;26.95;;;;;;;;;;4954425;28;20636;-44
2023/01/11 06:58:14;;;;;;;194.77;24.95;;;;;;;;;;4955717;28;20051;-43
2023/01/11 07:00:40;;;;;;;239.27;28.92;;;;;;;;;;4952636;28;20043;-45
2023/01/11 07:03:07;;;;;;;169.90;25.10;;;;;;;;;;4954712;28;20138;-42
2023/01/11 07:05:34;;;;;;;230.45;30.42;;;;;;;;;;4955152;28;20067;-43
2023/01/11 07:08:01;;;;;;;202.98;26.83;;;;;;;;;;4959753;28;20078;-43
2023/01/11 07:10:27;;;;;;;189.55;24.02;;;;;;;;;;4954927;28;20048;-44
2023/01/11 07:12:54;;;;;;;168.32;21.52;;;;;;;;;;4953818;28;20046;-43
2023/01/11 07:15:20;;;;;;;182.40;25.80;;;;;;;;;;4959497;28;20059;-44
2023/01/11 07:17:51;;;;;;;142.75;21.58;;;;;;;;;;4957467;28;20055;-44
2023/01/11 07:20:18;;;;;;;155.57;23.13;;;;;;;;;;4961137;28;20050;-43
2023/01/11 07:22:44;;;;;;;204.32;24.55;;;;;;;;;;4958512;28;20044;-43
2023/01/11 07:25:11;;;;;;;139.68;20.35;;;;;;;;;;4957950;28;20486;-42
2023/01/11 07:27:37;;;;;;;153.55;22.77;;;;;;;;;;4956507;28;20075;-44
2023/01/11 07:30:04;;;;;;;176.30;22.85;;;;;;;;;;4960127;28;20066;-43
2023/01/11 07:32:32;;;;;;;102.93;19.77;;;;;;;;;;4960052;28;20468;-43
2023/01/11 07:34:58;;;;;;;195.43;26.17;;;;;;;;;;4959528;28;20486;-43
2023/01/11 07:37:25;;;;;;;123.38;21.90;;;;;;;;;;4957416;28;20047;-43
2023/01/11 07:39:55;;;;;;;138.50;21.17;;;;;;;;;;4958564;28;20051;-42
2023/01/11 07:45:06;;;;;;;136.88;21.23;;;;;;;;;;4959636;28;20043;-42
2023/01/11 07:47:33;;;;;;;137.98;20.73;;;;;;;;;;4960148;28;20027;-44
2023/01/11 07:49:59;;;;;;;121.25;20.63;;;;;;;;;;4959205;28;20181;-43
2023/01/11 07:52:26;;;;;;;146.68;21.33;;;;;;;;;;4961839;28;20134;-43
2023/01/11 07:54:52;;;;;;;118.78;20.45;;;;;;;;;;4955977;28;20047;-44
2023/01/11 07:57:19;;;;;;;129.32;19.50;;;;;;;;;;4958107;28;20579;-44
2023/01/11 07:59:45;;;;;;;142.52;20.85;;;;;;;;;;4960096;28;20032;-42
2023/01/11 08:02:12;;;;;;;152.82;21.33;;;;;;;;;;4960087;28;20090;-46
2023/01/11 08:04:38;;;;;;;114.38;18.48;;;;;;;;;;4956611;28;20461;-46
2023/01/11 08:07:05;;;;;;;89.63;17.63;;;;;;;;;;4957275;28;21146;-42
2023/01/11 08:09:31;;;;;;;86.13;16.77;;;;;;;;;;4959895;28;20051;-43
2023/01/11 08:14:43;;;;;;;114.65;18.17;;;;;;;;;;4966396;28;20047;-44
2023/01/11 08:17:13;;;;;;;88.82;15.95;;;;;;;;;;4969763;28;20047;-42
2023/01/11 08:19:41;;;;;;;110.78;18.23;;;;;;;;;;4968527;28;20039;-42
2023/01/11 08:22:07;;;;;;;99.03;16.52;;;;;;;;;;4967921;28;20043;-42
2023/01/11 08:24:34;;;;;;;111.88;16.98;;;;;;;;;;4967052;28;20069;-44
2023/01/11 08:27:01;;;;;;;98.70;16.92;;;;;;;;;;4963601;28;20549;-43
2023/01/11 08:29:27;;;;;;;84.47;16.63;;;;;;;;;;4969090;28;20148;-42
2023/01/11 08:31:54;;;;;;;103.60;19.20;;;;;;;;;;4969948;28;20074;-43
2023/01/11 08:34:20;;;;;;;147.95;23.38;;;;;;;;;;4967110;28;20109;-45
2023/01/11 08:36:47;;;;;;;92.93;19.85;;;;;;;;;;4954466;28;20051;-45
2023/01/11 08:39:13;;;;;;;130.70;25.67;;;;;;;;;;4957836;28;20043;-50
2023/01/11 08:41:40;;;;;;;139.10;24.42;;;;;;;;;;4958642;28;20039;-45
2023/01/11 08:44:08;;;;;;;143.27;21.35;;;;;;;;;;4962908;28;20113;-45
2023/01/11 08:46:36;;;;;;;119.60;19.50;;;;;;;;;;4956013;28;20045;-43
2023/01/11 08:49:03;;;;;;;174.13;24.90;;;;;;;;;;4957416;28;20043;-45
2023/01/11 08:51:30;;;;;;;175.73;24.45;;;;;;;;;;4959181;28;20451;-46
2023/01/11 08:53:56;;;;;;;167.27;22.58;;;;;;;;;;4954446;28;20514;-45
2023/01/11 08:56:23;;;;;;;176.18;24.75;;;;;;;;;;4958449;28;20051;-47
2023/01/11 08:58:49;;;;;;;170.27;24.63;;;;;;;;;;4956881;28;20046;-45
2023/01/11 09:01:16;;;;;;;166.40;23.85;;;;;;;;;;4956128;28;20047;-49
2023/01/11 09:03:42;;;;;;;135.95;23.98;;;;;;;;;;4955163;28;20042;-46
2023/01/11 09:06:09;;;;;;;91.35;19.85;;;;;;;;;;4958589;28;20041;-44
2023/01/11 09:08:35;;;;;;;161.25;22.98;;;;;;;;;;4958904;28;20036;-47
2023/01/11 09:11:52;;;;;;;112.75;20.45;;;;;;;;;;4956671;28;20532;-44
2023/01/11 09:13:48;;;;;;;124.50;20.63;;;;;;;;;;4960589;28;20493;-46
2023/01/11 09:16:15;;;;;;;124.00;20.15;;;;;;;;;;4955869;28;20049;-45
2023/01/11 09:18:42;;;;;;;81.50;17.55;;;;;;;;;;4954401;28;20461;-47
2023/01/11 09:21:08;;;;;;;75.43;17.65;;;;;;;;;;4957004;28;20043;-47
2023/01/11 09:23:35;;;;;;;92.80;17.70;;;;;;;;;;4956951;28;20035;-43
2023/01/11 09:26:02;;;;;;;115.78;20.33;;;;;;;;;;4957223;28;20046;-46
2023/01/11 09:28:28;;;;;;;77.00;15.60;;;;;;;;;;4955676;28;20100;-47
2023/01/11 09:30:55;;;;;;;79.75;15.88;;;;;;;;;;4954269;28;20057;-46
2023/01/11 09:33:21;;;;;;;80.07;16.33;;;;;;;;;;4956435;28;20047;-47
2023/01/11 09:35:50;;;;;;;95.80;19.02;;;;;;;;;;4958384;28;20035;-48
2023/01/11 09:38:17;;;;;;;87.40;17.15;;;;;;;;;;4959393;28;20040;-43
2023/01/11 09:40:44;;;;;;;120.88;18.63;;;;;;;;;;4957103;28;20369;-45
2023/01/11 09:43:13;;;;;;;79.28;16.17;;;;;;;;;;4955543;28;20043;-45
2023/01/11 09:45:45;;;;;;;75.55;16.40;;;;;;;;;;4955122;28;20078;-47
2023/01/11 09:48:21;;;;;;;93.45;17.65;;;;;;;;;;4960003;28;20047;-43
2023/01/11 09:50:48;;;;;;;71.45;15.90;;;;;;;;;;4959741;28;20042;-45
2023/01/11 09:53:21;;;;;;;86.45;17.70;;;;;;;;;;4956324;28;20039;-46
2023/01/11 09:55:50;;;;;;;140.70;31.73;;;;;;;;;;4955109;28;20114;-45
2023/01/11 09:58:36;;;;;;;110.68;24.58;;;;;;;;;;4953115;28;20047;-44
2023/01/11 10:01:18;;;;;;;117.00;23.83;;;;;;;;;;4954601;28;20498;-44
2023/01/11 10:03:51;;;;;;;104.88;25.83;;;;;;;;;;4952747;28;20797;-44
2023/01/11 10:06:23;;;;;;;99.90;19.63;;;;;;;;;;4958797;28;20035;-44
2023/01/11 10:08:58;;;;;;;95.47;18.73;;;;;;;;;;4957246;28;20039;-49
2023/01/11 10:11:46;;;;;;;79.35;16.77;;;;;;;;;;4961144;28;20031;-44
2023/01/11 10:14:34;;;;;;;92.13;18.17;;;;;;;;;;4959240;28;20414;-43
2023/01/11 10:17:27;;;;;;;98.72;17.35;;;;;;;;;;4956886;28;20050;-47
2023/01/11 10:20:33;;;;;;;111.07;18.77;;;;;;;;;;4958942;28;20046;-47
2023/01/11 10:23:04;;;;;;;103.65;18.27;;;;;;;;;;4955751;28;20045;-45
2023/01/11 10:25:40;;;;;;;71.53;14.93;;;;;;;;;;4953250;28;20050;-46
2023/01/11 10:28:13;;;;;;;85.38;15.45;;;;;;;;;;4952469;28;20079;-45
2023/01/11 10:41:25;;;;;;;72.03;14.50;;;;;;;;;;4953359;28;20588;-48
2023/01/11 10:44:01;;;;;;;98.93;15.15;;;;;;;;;;4959118;28;20131;-45
2023/01/11 10:46:29;;;;;;;68.15;13.98;;;;;;;;;;4954440;28;20047;-44
2023/01/11 10:49:02;;;;;;;72.60;14.25;;;;;;;;;;4955994;28;20487;-45
2023/01/11 10:51:37;;;;;;;63.97;14.60;;;;;;;;;;4960218;28;20047;-48
2023/01/11 10:54:12;;;;;;;69.18;14.73;;;;;;;;;;4961073;28;20043;-46
2023/01/11 10:56:51;;;;;;;58.60;17.38;;;;;;;;;;4960900;28;20058;-47
2023/01/11 10:59:40;;;;;;;82.82;20.58;;;;;;;;;;4964015;28;20126;-44
2023/01/11 11:02:06;;;;;;;71.35;17.10;;;;;;;;;;4964713;28;20043;-43
2023/01/11 11:04:45;;;;;;;68.00;17.75;;;;;;;;;;4957704;28;20469;-47
2023/01/11 11:07:17;;;;;;;60.03;14.45;;;;;;;;;;4956794;28;20059;-45
2023/01/11 11:09:53;;;;;;;70.40;16.23;;;;;;;;;;4958278;28;20040;-45
2023/01/11 11:12:28;;;;;;;85.10;17.52;;;;;;;;;;4959534;28;20047;-46
2023/01/11 11:14:56;;;;;;;75.03;16.83;;;;;;;;;;4959881;28;20047;-46
2023/01/11 11:17:24;;;;;;;94.00;19.65;;;;;;;;;;4960372;28;20042;-45
2023/01/11 11:19:51;;;;;;;80.05;19.27;;;;;;;;;;4958858;28;20049;-44
2023/01/11 11:22:19;;;;;;;97.90;20.33;;;;;;;;;;4961815;28;20121;-47
2023/01/11 11:24:53;;;;;;;77.18;17.17;;;;;;;;;;4959471;28;20047;-44
2023/01/11 11:27:22;;;;;;;77.30;16.98;;;;;;;;;;4958573;28;20051;-48
2023/01/11 11:29:51;;;;;;;66.43;16.90;;;;;;;;;;4959773;28;20039;-48
2023/01/11 11:32:19;;;;;;;92.60;18.73;;;;;;;;;;4960463;28;20042;-47
2023/01/11 11:34:47;;;;;;;83.90;17.85;;;;;;;;;;4961138;28;20050;-43
2023/01/11 11:37:19;;;;;;;69.68;17.10;;;;;;;;;;4961825;28;20039;-46
2023/01/11 11:39:47;;;;;;;46.45;13.60;;;;;;;;;;4957697;28;20094;-47
2023/01/11 11:42:14;;;;;;;65.25;15.05;;;;;;;;;;4960390;28;20045;-45
2023/01/11 11:44:41;;;;;;;80.68;18.95;;;;;;;;;;4960146;28;20050;-47
2023/01/11 11:47:15;;;;;;;52.20;16.65;;;;;;;;;;4960477;28;20477;-45
2023/01/11 11:49:42;;;;;;;64.35;16.60;;;;;;;;;;4955503;28;20073;-47
2023/01/11 11:52:12;;;;;;;78.88;17.35;;;;;;;;;;4957259;28;20553;-45
2023/01/11 11:54:42;;;;;;;64.50;16.60;;;;;;;;;;4956436;28;20042;-44
2023/01/11 11:57:13;;;;;;;87.88;17.27;;;;;;;;;;4959724;28;20098;-44
2023/01/11 11:59:43;;;;;;;76.38;17.42;;;;;;;;;;4959030;28;20047;-44
2023/01/11 12:02:20;;;;;;;65.68;16.63;;;;;;;;;;4963501;28;20067;-44
2023/01/11 12:04:47;;;;;;;95.22;17.48;;;;;;;;;;4957234;28;20066;-43
2023/01/11 12:07:19;;;;;;;58.42;16.23;;;;;;;;;;4957440;28;20047;-48
2023/01/11 12:09:48;;;;;;;67.97;17.70;;;;;;;;;;4956461;28;20057;-43
2023/01/11 12:12:16;;;;;;;79.93;15.90;;;;;;;;;;4960709;28;20512;-47
2023/01/11 12:14:42;;;;;;;57.15;15.77;;;;;;;;;;4957599;28;20483;-45
2023/01/11 12:17:22;;;;;;;62.00;16.77;;;;;;;;;;4959494;28;20038;-43
2023/01/11 12:19:49;;;;;;;105.22;21.13;;;;;;;;;;4958726;28;20079;-44
2023/01/11 12:22:17;;;;;;;74.47;16.02;;;;;;;;;;4957001;28;20493;-44
2023/01/11 12:25:16;;;;;;;72.35;16.15;;;;;;;;;;4956723;28;20049;-49
2023/01/11 12:27:48;;;;;;;78.45;16.05;;;;;;;;;;4924193;29;20115;-49
2023/01/11 12:30:19;;;;;;;59.92;12.85;;;;;;;;;;4919761;29;20127;-48
2023/01/11 12:33:04;;;;;;;59.90;12.90;;;;;;;;;;4921553;29;20100;-49
2023/01/11 12:35:31;;;;;;;45.83;11.48;;;;;;;;;;4912212;29;20048;-47
2023/01/11 12:38:13;;;;;;;91.82;15.40;;;;;;;;;;4923501;29;20083;-44
2023/01/11 12:40:49;;;;;;;67.95;13.88;;;;;;;;;;4922903;29;20052;-47
2023/01/11 12:43:21;;;;;;;84.72;13.38;;;;;;;;;;4919085;29;20103;-45
2023/01/11 12:45:47;;;;;;;47.80;10.98;;;;;;;;;;4927920;29;20152;-44
2023/01/11 12:48:20;;;;;;;87.30;14.18;;;;;;;;;;4921448;29;20067;-43
2023/01/11 12:51:05;;;;;;;74.07;15.68;;;;;;;;;;4921772;29;20431;-49
2023/01/11 12:53:40;;;;;;;74.00;16.88;;;;;;;;;;4923335;29;20044;-44
2023/01/11 12:56:09;;;;;;;93.70;15.30;;;;;;;;;;4921407;29;20158;-43
2023/01/11 12:58:42;;;;;;;50.38;13.40;;;;;;;;;;4920847;29;20074;-48
2023/01/11 13:01:23;;;;;;;60.10;12.70;;;;;;;;;;4919375;29;20562;-44
2023/01/11 13:04:08;;;;;;;52.00;11.55;;;;;;;;;;4945076;28;20074;-47
2023/01/11 13:06:47;;;;;;;50.85;11.77;;;;;;;;;;4955174;28;20077;-45
2023/01/11 13:09:25;;;;;;;100.30;15.30;;;;;;;;;;4956841;28;20046;-46
2023/01/11 13:11:59;;;;;;;71.45;14.05;;;;;;;;;;4958512;28;20046;-46
2023/01/11 13:14:25;;;;;;;88.18;15.38;;;;;;;;;;4957311;28;20065;-47
2023/01/11 13:17:18;;;;;;;90.95;15.35;;;;;;;;;;4955595;28;20116;-46
2023/01/11 13:19:54;;;;;;;92.68;14.43;;;;;;;;;;4954721;28;20091;-46
2023/01/11 13:22:23;;;;;;;89.22;13.50;;;;;;;;;;4955052;28;20497;-44
2023/01/11 13:24:50;;;;;;;50.78;11.25;;;;;;;;;;4954499;28;20054;-47
2023/01/11 13:27:21;;;;;;;58.35;12.57;;;;;;;;;;4957850;28;20453;-45
2023/01/11 13:29:50;;;;;;;80.10;19.10;;;;;;;;;;4958499;28;20050;-47
2023/01/11 13:32:19;;;;;;;100.72;16.92;;;;;;;;;;4962729;28;20039;-45
2023/01/11 13:34:48;;;;;;;62.85;13.38;;;;;;;;;;4959695;28;20042;-43
2023/01/11 13:37:20;;;;;;;71.13;15.63;;;;;;;;;;4955135;28;20047;-45
2023/01/11 13:39:52;;;;;;;57.63;16.00;;;;;;;;;;4953288;28;20039;-46
2023/01/11 13:42:21;;;;;;;83.13;16.27;;;;;;;;;;4957783;28;20077;-44
2023/01/11 13:45:09;;;;;;;83.95;13.65;;;;;;;;;;4958408;28;20039;-43
2023/01/11 13:47:38;;;;;;;101.80;15.88;;;;;;;;;;4956417;28;20045;-44
2023/01/11 13:50:22;;;;;;;81.88;13.77;;;;;;;;;;4956523;28;20039;-43
2023/01/11 13:52:59;;;;;;;78.85;15.25;;;;;;;;;;4957985;28;20529;-47
2023/01/11 13:55:49;;;;;;;68.82;13.43;;;;;;;;;;4955093;28;20097;-49
2023/01/11 13:58:22;;;;;;;106.57;17.33;;;;;;;;;;4955483;28;20046;-43
2023/01/11 14:00:48;;;;;;;58.08;13.68;;;;;;;;;;4954189;28;20043;-46
2023/01/11 14:03:15;;;;;;;61.33;14.18;;;;;;;;;;4957204;28;20043;-47
2023/01/11 14:05:47;;;;;;;59.53;13.68;;;;;;;;;;4956891;28;20047;-44
2023/01/11 14:08:21;;;;;;;79.63;14.80;;;;;;;;;;4961426;28;20509;-48
2023/01/11 14:11:15;;;;;;;112.53;16.85;;;;;;;;;;4957639;28;20038;-44
2023/01/11 14:16:46;;;;;;;70.93;14.65;;;;;;;;;;4955807;28;19922;-45
2023/01/11 14:19:13;;;;;;;61.58;13.98;;;;;;;;;;4953612;28;20047;-45
2023/01/11 14:21:39;;;;;;;53.13;13.40;;;;;;;;;;4954015;28;20043;-45
2023/01/11 14:24:07;;;;;;;48.13;14.52;;;;;;;;;;4956581;28;20046;-44
2023/01/11 14:26:33;;;;;;;63.65;15.43;;;;;;;;;;4955715;28;20053;-46
2023/01/11 14:29:06;;;;;;;80.25;17.40;;;;;;;;;;4955356;28;20136;-46
2023/01/11 14:31:38;;;;;;;72.87;17.87;;;;;;;;;;4958848;28;20050;-43
2023/01/11 14:34:20;;;;;;;82.47;19.40;;;;;;;;;;4954978;28;20047;-44
2023/01/11 14:36:46;;;;;;;55.53;16.02;;;;;;;;;;4952450;28;20075;-47
2023/01/11 14:39:32;;;;;;;78.00;19.33;;;;;;;;;;4956965;28;20039;-47
2023/01/11 14:41:58;;;;;;;60.08;18.27;;;;;;;;;;4957561;28;20051;-43
2023/01/11 14:44:31;;;;;;;85.03;21.73;;;;;;;;;;4957715;28;20051;-43
2023/01/11 14:47:09;;;;;;;113.95;22.83;;;;;;;;;;4955717;28;20130;-45
2023/01/11 14:49:48;;;;;;;82.30;21.95;;;;;;;;;;4954737;28;20050;-45
2023/01/11 14:52:21;;;;;;;97.63;23.75;;;;;;;;;;4956036;28;20520;-47
2023/01/11 14:55:05;;;;;;;99.70;23.90;;;;;;;;;;4953280;28;20094;-44
2023/01/11 14:58:00;;;;;;;71.38;22.65;;;;;;;;;;4954649;28;20043;-45